createdAt,value
2023-03-04T00:00:14.899Z,82.68
2023-03-04T00:01:14.878Z,82.68
2023-03-04T00:02:14.922Z,82.68
2023-03-04T00:03:14.903Z,82.58
2023-03-04T00:04:14.845Z,82.58
2023-03-04T00:05:14.834Z,82.68
2023-03-04T00:06:14.819Z,82.68
2023-03-04T00:07:14.807Z,82.68
2023-03-04T00:08:14.806Z,82.58
2023-03-04T00:09:14.776Z,82.68
2023-03-04T00:10:14.765Z,82.68
2023-03-04T00:11:14.865Z,82.79
2023-03-04T00:12:14.738Z,82.79
2023-03-04T00:13:14.745Z,82.68
2023-03-04T00:14:14.715Z,82.68
2023-03-04T00:15:14.698Z,82.68
2023-03-04T00:16:14.741Z,82.79
2023-03-04T00:17:14.672Z,82.68
2023-03-04T00:18:14.685Z,82.79
2023-03-04T00:19:14.635Z,82.79
2023-03-04T00:20:14.647Z,82.79
2023-03-04T00:21:14.615Z,82.68
2023-03-04T00:22:14.608Z,82.68
2023-03-04T00:23:14.604Z,82.68
2023-03-04T00:24:14.584Z,82.68
2023-03-04T00:25:14.565Z,82.79
2023-03-04T00:26:14.564Z,82.79
2023-03-04T00:27:14.552Z,82.79
2023-03-04T00:28:14.561Z,82.79
2023-03-04T00:29:14.516Z,82.75
2023-03-04T00:30:14.509Z,82.79
2023-03-04T00:31:14.619Z,82.86
2023-03-04T00:32:14.514Z,82.86
2023-03-04T00:33:14.475Z,82.96
2023-03-04T00:34:14.453Z,82.96
2023-03-04T00:35:14.434Z,82.96
2023-03-04T00:36:14.427Z,83.06
2023-03-04T00:37:14.400Z,83.06
2023-03-04T00:38:14.442Z,83.06
2023-03-04T00:39:14.386Z,83.17
2023-03-04T00:40:14.374Z,83.17
2023-03-04T00:41:14.348Z,83.17
2023-03-04T00:42:14.362Z,83.17
2023-03-04T00:43:14.341Z,83.17
2023-03-04T00:44:14.308Z,83.27
2023-03-04T00:45:14.290Z,83.27
2023-03-04T00:46:14.369Z,83.27
2023-03-04T00:47:14.267Z,83.27
2023-03-04T00:48:14.277Z,83.37
2023-03-04T00:49:14.247Z,83.37
2023-03-04T00:50:14.237Z,83.48
2023-03-04T00:51:14.229Z,83.48
2023-03-04T00:52:14.220Z,83.37
2023-03-04T00:53:14.324Z,83.48
2023-03-04T00:54:14.324Z,83.48
2023-03-04T00:55:14.170Z,83.48
2023-03-04T00:56:14.175Z,83.48
2023-03-04T00:57:14.150Z,83.58
2023-03-04T00:58:14.140Z,83.58
2023-03-04T00:59:14.127Z,83.48
2023-03-04T01:00:14.105Z,83.58
2023-03-04T01:01:14.109Z,83.58
2023-03-04T01:02:14.114Z,83.54
2023-03-04T01:03:14.064Z,83.54
2023-03-04T01:04:14.071Z,83.54
2023-03-04T01:05:14.036Z,83.54
2023-03-04T01:06:14.024Z,83.54
2023-03-04T01:07:14.017Z,83.54
2023-03-04T01:08:14.008Z,83.54
2023-03-04T01:09:14.003Z,83.54
2023-03-04T01:10:13.981Z,83.54
2023-03-04T01:11:13.965Z,83.54
2023-03-04T01:12:13.952Z,83.54
2023-03-04T01:13:13.931Z,83.54
2023-03-04T01:14:13.945Z,83.54
2023-03-04T01:15:13.912Z,83.54
2023-03-04T01:16:13.920Z,83.54
2023-03-04T01:17:13.889Z,83.54
2023-03-04T01:18:13.913Z,83.54
2023-03-04T01:19:13.869Z,83.54
2023-03-04T01:20:13.856Z,83.44
2023-03-04T01:21:13.838Z,83.54
2023-03-04T01:22:13.830Z,83.44
2023-03-04T01:23:13.810Z,83.54
2023-03-04T01:24:13.818Z,83.54
2023-03-04T01:25:13.782Z,83.54
2023-03-04T01:26:13.773Z,83.44
2023-03-04T01:27:13.750Z,83.54
2023-03-04T01:28:13.756Z,83.54
2023-03-04T01:29:13.734Z,83.54
2023-03-04T01:30:13.718Z,83.54
2023-03-04T01:31:13.785Z,83.65
2023-03-04T01:32:13.716Z,83.65
2023-03-04T01:33:13.681Z,83.54
2023-03-04T01:34:13.683Z,83.65
2023-03-04T01:35:13.654Z,83.61
2023-03-04T01:36:13.643Z,83.61
2023-03-04T01:37:13.627Z,83.61
2023-03-04T01:38:13.626Z,83.61
2023-03-04T01:39:13.619Z,83.61
2023-03-04T01:40:13.589Z,83.51
2023-03-04T01:41:13.575Z,83.51
2023-03-04T01:42:13.573Z,83.51
2023-03-04T01:43:13.556Z,83.51
2023-03-04T01:44:13.558Z,83.51
2023-03-04T01:45:13.525Z,83.51
2023-03-04T01:46:13.587Z,83.51
2023-03-04T01:47:13.496Z,83.51
2023-03-04T01:48:13.485Z,83.51
2023-03-04T01:49:13.515Z,83.51
2023-03-04T01:50:13.465Z,83.51
2023-03-04T01:51:13.445Z,83.61
2023-03-04T01:52:13.469Z,83.61
2023-03-04T01:53:13.425Z,83.51
2023-03-04T01:54:13.425Z,83.51
2023-03-04T01:55:13.394Z,83.51
2023-03-04T01:56:13.388Z,83.51
2023-03-04T01:57:13.410Z,83.51
2023-03-04T01:58:13.365Z,83.51
2023-03-04T01:59:13.356Z,83.51
2023-03-04T02:00:13.334Z,83.51
2023-03-04T02:01:13.347Z,83.51
2023-03-04T02:02:13.312Z,83.51
2023-03-04T02:03:13.293Z,83.51
2023-03-04T02:04:13.354Z,83.40
2023-03-04T02:05:13.264Z,83.40
2023-03-04T02:06:13.261Z,83.40
2023-03-04T02:07:13.241Z,83.40
2023-03-04T02:08:13.234Z,83.40
2023-03-04T02:09:13.230Z,83.40
2023-03-04T02:10:13.212Z,83.40
2023-03-04T02:11:13.194Z,83.40
2023-03-04T02:12:13.183Z,83.40
2023-03-04T02:13:13.175Z,83.40
2023-03-04T02:14:13.197Z,83.40
2023-03-04T02:15:13.157Z,83.37
2023-03-04T02:16:13.156Z,83.40
2023-03-04T02:17:13.114Z,83.30
2023-03-04T02:18:13.101Z,83.26
2023-03-04T02:19:13.101Z,83.37
2023-03-04T02:20:13.104Z,83.37
2023-03-04T02:21:13.062Z,83.26
2023-03-04T02:22:13.061Z,83.37
2023-03-04T02:23:13.041Z,83.37
2023-03-04T02:24:13.043Z,83.26
2023-03-04T02:25:13.011Z,83.26
2023-03-04T02:26:20.506Z,83.26
2023-03-04T02:27:12.990Z,83.26
2023-03-04T02:28:20.496Z,83.26
2023-03-04T02:29:21.668Z,83.26
2023-03-04T02:30:20.463Z,83.26
2023-03-04T02:31:20.501Z,83.26
2023-03-04T02:32:20.507Z,83.26
2023-03-04T02:33:20.423Z,83.26
2023-03-04T02:34:12.918Z,83.26
2023-03-04T02:35:12.889Z,83.26
2023-03-04T02:36:12.879Z,83.26
2023-03-04T02:37:12.857Z,83.26
2023-03-04T02:38:12.857Z,83.26
2023-03-04T02:39:12.856Z,83.26
2023-03-04T02:40:12.828Z,83.26
2023-03-04T02:41:12.814Z,83.26
2023-03-04T02:42:12.801Z,83.26
2023-03-04T02:43:12.794Z,83.26
2023-03-04T02:44:12.786Z,83.26
2023-03-04T02:45:12.754Z,83.26
2023-03-04T02:46:12.769Z,83.37
2023-03-04T02:47:12.726Z,83.37
2023-03-04T02:48:12.725Z,83.37
2023-03-04T02:49:12.715Z,83.37
2023-03-04T02:50:12.693Z,83.37
2023-03-04T02:51:12.678Z,83.37
2023-03-04T02:52:12.672Z,83.37
2023-03-04T02:53:12.645Z,83.37
2023-03-04T02:54:12.656Z,83.37
2023-03-04T02:55:12.637Z,83.37
2023-03-04T02:56:12.625Z,83.37
2023-03-04T02:57:12.611Z,83.37
2023-03-04T02:58:12.601Z,83.26
2023-03-04T02:59:12.584Z,83.26
2023-03-04T03:00:12.562Z,83.26
2023-03-04T03:01:12.559Z,83.26
2023-03-04T03:02:12.542Z,83.26
2023-03-04T03:03:12.654Z,83.26
2023-03-04T03:04:12.532Z,83.26
2023-03-04T03:05:12.507Z,83.26
2023-03-04T03:06:12.490Z,83.37
2023-03-04T03:07:12.474Z,83.37
2023-03-04T03:08:12.462Z,83.37
2023-03-04T03:09:12.486Z,83.33
2023-03-04T03:10:12.442Z,83.33
2023-03-04T03:11:12.424Z,83.43
2023-03-04T03:12:12.418Z,83.43
2023-03-04T03:13:12.400Z,83.53
2023-03-04T03:14:12.404Z,83.53
2023-03-04T03:15:12.372Z,83.53
2023-03-04T03:16:12.410Z,83.53
2023-03-04T03:17:12.342Z,83.53
2023-03-04T03:18:12.349Z,83.53
2023-03-04T03:19:12.333Z,83.53
2023-03-04T03:20:12.309Z,83.43
2023-03-04T03:21:12.297Z,83.43
2023-03-04T03:22:12.288Z,83.43
2023-03-04T03:23:12.278Z,83.43
2023-03-04T03:24:12.269Z,83.43
2023-03-04T03:25:12.236Z,83.43
2023-03-04T03:26:12.227Z,83.43
2023-03-04T03:27:12.216Z,83.43
2023-03-04T03:28:12.205Z,83.43
2023-03-04T03:29:12.206Z,83.43
2023-03-04T03:30:12.183Z,83.43
2023-03-04T03:31:12.195Z,83.43
2023-03-04T03:32:12.227Z,83.53
2023-03-04T03:33:12.136Z,83.53
2023-03-04T03:34:12.134Z,83.53
2023-03-04T03:35:12.103Z,83.53
2023-03-04T03:36:12.545Z,83.64
2023-03-04T03:37:12.103Z,83.74
2023-03-04T03:38:12.081Z,83.74
2023-03-04T03:39:12.550Z,83.74
2023-03-04T03:40:12.578Z,83.74
2023-03-04T03:41:12.563Z,83.74
2023-03-04T03:42:12.026Z,83.74
2023-03-04T03:43:12.001Z,83.74
2023-03-04T03:44:12.010Z,83.74
2023-03-04T03:45:11.989Z,83.84
2023-03-04T03:46:12.039Z,83.84
2023-03-04T03:47:11.949Z,83.74
2023-03-04T03:48:11.943Z,83.74
2023-03-04T03:49:11.943Z,83.84
2023-03-04T03:50:11.932Z,83.84
2023-03-04T03:51:11.898Z,83.84
2023-03-04T03:52:11.889Z,83.84
2023-03-04T03:53:11.870Z,83.84
2023-03-04T03:54:11.870Z,83.84
2023-03-04T03:55:11.867Z,83.84
2023-03-04T03:56:11.838Z,83.84
2023-03-04T03:57:11.829Z,83.84
2023-03-04T03:58:11.809Z,83.95
2023-03-04T03:59:11.802Z,83.95
2023-03-04T04:00:11.805Z,83.95
2023-03-04T04:01:11.779Z,83.95
2023-03-04T04:02:11.831Z,83.95
2023-03-04T04:03:11.749Z,84.05
2023-03-04T04:04:11.731Z,84.05
2023-03-04T04:05:11.738Z,84.16
2023-03-04T04:06:11.700Z,84.16
2023-03-04T04:07:11.698Z,84.16
2023-03-04T04:08:11.680Z,84.16
2023-03-04T04:09:11.669Z,84.16
2023-03-04T04:10:11.667Z,84.16
2023-03-04T04:11:11.668Z,84.16
2023-03-04T04:12:11.627Z,84.16
2023-03-04T04:13:11.619Z,84.16
2023-03-04T04:14:11.604Z,84.16
2023-03-04T04:15:11.602Z,84.27
2023-03-04T04:16:11.622Z,84.16
2023-03-04T04:17:11.560Z,84.16
2023-03-04T04:18:11.539Z,84.16
2023-03-04T04:19:11.568Z,84.16
2023-03-04T04:20:20.237Z,84.16
2023-03-04T04:21:11.515Z,84.27
2023-03-04T04:22:11.497Z,84.27
2023-03-04T04:23:11.490Z,84.37
2023-03-04T04:24:11.468Z,84.27
2023-03-04T04:25:11.468Z,84.27
2023-03-04T04:26:11.446Z,84.27
2023-03-04T04:27:11.432Z,84.37
2023-03-04T04:28:11.421Z,84.33
2023-03-04T04:29:11.402Z,84.47
2023-03-04T04:30:11.395Z,84.33
2023-03-04T04:31:11.439Z,84.37
2023-03-04T04:32:11.381Z,84.43
2023-03-04T04:33:11.351Z,84.47
2023-03-04T04:34:11.336Z,84.37
2023-03-04T04:35:11.338Z,84.47
2023-03-04T04:36:11.301Z,84.43
2023-03-04T04:37:11.303Z,84.43
2023-03-04T04:38:11.289Z,84.47
2023-03-04T04:39:11.279Z,84.43
2023-03-04T04:40:11.268Z,84.43
2023-03-04T04:41:11.246Z,84.43
2023-03-04T04:42:11.251Z,84.53
2023-03-04T04:43:11.238Z,84.53
2023-03-04T04:44:11.207Z,84.43
2023-03-04T04:45:11.205Z,84.64
2023-03-04T04:46:11.213Z,84.64
2023-03-04T04:47:11.173Z,84.64
2023-03-04T04:48:11.146Z,84.64
2023-03-04T04:49:11.136Z,84.64
2023-03-04T04:50:11.140Z,84.74
2023-03-04T04:51:11.116Z,84.64
2023-03-04T04:52:11.096Z,84.64
2023-03-04T04:53:11.083Z,84.74
2023-03-04T04:54:11.067Z,84.64
2023-03-04T04:55:11.073Z,84.64
2023-03-04T04:56:11.042Z,84.64
2023-03-04T04:57:11.032Z,84.74
2023-03-04T04:58:11.014Z,84.74
2023-03-04T04:59:11.022Z,84.74
2023-03-04T05:00:11.003Z,84.74
2023-03-04T05:01:11.029Z,84.74
2023-03-04T05:02:10.964Z,84.74
2023-03-04T05:03:10.980Z,84.74
2023-03-04T05:04:10.944Z,84.74
2023-03-04T05:05:10.951Z,84.74
2023-03-04T05:06:10.914Z,84.74
2023-03-04T05:07:10.906Z,84.74
2023-03-04T05:08:10.896Z,84.84
2023-03-04T05:09:10.909Z,84.95
2023-03-04T05:10:10.877Z,84.95
2023-03-04T05:11:10.857Z,84.95
2023-03-04T05:12:10.848Z,84.84
2023-03-04T05:13:10.839Z,84.84
2023-03-04T05:14:10.816Z,84.84
2023-03-04T05:15:10.817Z,84.74
2023-03-04T05:16:10.800Z,84.74
2023-03-04T05:17:10.778Z,84.64
2023-03-04T05:18:10.776Z,84.64
2023-03-04T05:19:10.755Z,84.64
2023-03-04T05:20:10.746Z,84.64
2023-03-04T05:21:10.733Z,84.74
2023-03-04T05:22:10.706Z,84.84
2023-03-04T05:23:10.706Z,84.95
2023-03-04T05:24:10.688Z,84.95
2023-03-04T05:25:10.730Z,84.95
2023-03-04T05:26:10.665Z,85.16
2023-03-04T05:27:10.656Z,85.16
2023-03-04T05:28:10.633Z,85.05
2023-03-04T05:29:10.626Z,85.16
2023-03-04T05:30:10.629Z,85.16
2023-03-04T05:31:10.649Z,85.05
2023-03-04T05:32:10.593Z,85.16
2023-03-04T05:33:10.624Z,85.16
2023-03-04T05:34:10.559Z,85.16
2023-03-04T05:35:10.565Z,85.05
2023-03-04T05:36:10.536Z,84.95
2023-03-04T05:37:10.531Z,84.95
2023-03-04T05:38:10.527Z,84.84
2023-03-04T05:39:10.515Z,84.84
2023-03-04T05:40:10.491Z,84.84
2023-03-04T05:41:10.477Z,84.95
2023-03-04T05:42:10.457Z,84.95
2023-03-04T05:43:10.449Z,84.95
2023-03-04T05:44:10.433Z,84.95
2023-03-04T05:45:10.434Z,84.84
2023-03-04T05:46:10.462Z,84.84
2023-03-04T05:47:10.392Z,84.84
2023-03-04T05:48:10.382Z,84.84
2023-03-04T05:49:10.374Z,84.74
2023-03-04T05:50:10.373Z,84.95
2023-03-04T05:51:10.351Z,84.95
2023-03-04T05:52:10.679Z,85.05
2023-03-04T05:53:10.322Z,85.05
2023-03-04T05:54:10.301Z,85.05
2023-03-04T05:55:10.314Z,85.16
2023-03-04T05:56:10.296Z,85.16
2023-03-04T05:57:10.272Z,85.16
2023-03-04T05:58:10.252Z,85.05
2023-03-04T05:59:10.242Z,85.16
2023-03-04T06:00:10.241Z,85.26
2023-03-04T06:01:10.223Z,85.26
2023-03-04T06:02:10.224Z,85.26
2023-03-04T06:03:10.190Z,85.26
2023-03-04T06:04:10.280Z,85.26
2023-03-04T06:05:10.331Z,85.26
2023-03-04T06:06:10.277Z,85.26
2023-03-04T06:07:10.250Z,85.26
2023-03-04T06:08:10.241Z,85.26
2023-03-04T06:09:10.119Z,85.16
2023-03-04T06:10:10.119Z,85.16
2023-03-04T06:11:10.088Z,85.05
2023-03-04T06:12:10.068Z,85.16
2023-03-04T06:13:10.069Z,85.26
2023-03-04T06:14:10.096Z,85.26
2023-03-04T06:15:10.098Z,85.26
2023-03-04T06:16:10.043Z,85.26
2023-03-04T06:17:10.009Z,85.36
2023-03-04T06:18:10.002Z,85.47
2023-03-04T06:19:10.020Z,85.47
2023-03-04T06:20:09.981Z,85.47
2023-03-04T06:21:09.955Z,85.68
2023-03-04T06:22:09.938Z,85.68
2023-03-04T06:23:09.926Z,85.57
2023-03-04T06:24:09.918Z,85.47
2023-03-04T06:25:09.929Z,85.47
2023-03-04T06:26:09.894Z,85.57
2023-03-04T06:27:09.877Z,85.68
2023-03-04T06:28:09.855Z,85.78
2023-03-04T06:29:09.853Z,85.78
2023-03-04T06:30:09.875Z,85.78
2023-03-04T06:31:09.887Z,85.88
2023-03-04T06:32:09.827Z,85.88
2023-03-04T06:33:09.802Z,85.78
2023-03-04T06:34:09.790Z,85.78
2023-03-04T06:35:09.783Z,85.78
2023-03-04T06:36:09.758Z,85.78
2023-03-04T06:37:09.743Z,85.78
2023-03-04T06:38:09.741Z,85.74
2023-03-04T06:39:09.721Z,85.85
2023-03-04T06:40:09.750Z,85.85
2023-03-04T06:41:09.716Z,85.95
2023-03-04T06:42:09.683Z,86.05
2023-03-04T06:43:09.665Z,85.95
2023-03-04T06:44:09.656Z,85.95
2023-03-04T06:45:09.641Z,85.95
2023-03-04T06:46:09.636Z,85.85
2023-03-04T06:47:09.620Z,85.95
2023-03-04T06:48:09.603Z,85.85
2023-03-04T06:49:09.596Z,85.85
2023-03-04T06:50:09.584Z,85.85
2023-03-04T06:51:09.597Z,85.74
2023-03-04T06:52:09.551Z,85.74
2023-03-04T06:53:09.541Z,85.74
2023-03-04T06:54:09.531Z,85.64
2023-03-04T06:55:09.515Z,85.64
2023-03-04T06:56:09.526Z,85.53
2023-03-04T06:57:09.488Z,85.53
2023-03-04T06:58:09.551Z,85.64
2023-03-04T06:59:09.565Z,85.53
2023-03-04T07:00:09.506Z,85.53
2023-03-04T07:01:09.526Z,85.53
2023-03-04T07:02:09.418Z,85.43
2023-03-04T07:03:09.424Z,85.43
2023-03-04T07:04:09.419Z,85.43
2023-03-04T07:05:09.386Z,85.33
2023-03-04T07:06:09.379Z,85.33
2023-03-04T07:07:09.355Z,85.53
2023-03-04T07:08:09.349Z,85.43
2023-03-04T07:09:09.340Z,85.53
2023-03-04T07:10:09.314Z,85.53
2023-03-04T07:11:09.315Z,85.53
2023-03-04T07:12:09.294Z,85.53
2023-03-04T07:13:09.382Z,85.64
2023-03-04T07:14:09.272Z,85.53
2023-03-04T07:15:09.262Z,85.64
2023-03-04T07:16:09.288Z,85.74
2023-03-04T07:17:09.230Z,85.74
2023-03-04T07:18:09.216Z,85.71
2023-03-04T07:19:09.203Z,85.71
2023-03-04T07:20:09.213Z,85.71
2023-03-04T07:21:09.196Z,85.81
2023-03-04T07:22:09.164Z,85.71
2023-03-04T07:23:09.180Z,85.71
2023-03-04T07:24:09.144Z,85.60
2023-03-04T07:25:09.121Z,85.71
2023-03-04T07:26:09.123Z,85.71
2023-03-04T07:27:09.101Z,85.81
2023-03-04T07:28:09.082Z,85.91
2023-03-04T07:29:09.113Z,85.91
2023-03-04T07:30:09.061Z,85.91
2023-03-04T07:31:09.061Z,86.02
2023-03-04T07:32:09.165Z,86.02
2023-03-04T07:33:09.035Z,86.02
2023-03-04T07:34:09.008Z,86.02
2023-03-04T07:35:09.008Z,86.02
2023-03-04T07:36:08.990Z,86.02
2023-03-04T07:37:08.969Z,86.02
2023-03-04T07:38:08.951Z,86.12
2023-03-04T07:39:08.957Z,86.08
2023-03-04T07:40:08.946Z,86.02
2023-03-04T07:41:08.934Z,85.97
2023-03-04T07:42:08.900Z,85.97
2023-03-04T07:43:08.889Z,85.97
2023-03-04T07:44:09.026Z,85.97
2023-03-04T07:45:08.871Z,85.87
2023-03-04T07:46:08.912Z,85.87
2023-03-04T07:47:08.851Z,85.97
2023-03-04T07:48:08.835Z,86.08
2023-03-04T07:49:08.823Z,86.18
2023-03-04T07:50:08.802Z,86.29
2023-03-04T07:51:08.810Z,86.29
2023-03-04T07:52:08.770Z,86.29
2023-03-04T07:53:08.765Z,86.29
2023-03-04T07:54:08.747Z,86.39
2023-03-04T07:55:08.737Z,86.39
2023-03-04T07:56:08.736Z,86.39
2023-03-04T07:57:08.716Z,86.39
2023-03-04T07:58:08.697Z,86.49
2023-03-04T07:59:08.688Z,86.49
2023-03-04T08:00:08.667Z,86.45
2023-03-04T08:01:08.678Z,86.55
2023-03-04T08:02:08.662Z,86.55
2023-03-04T08:03:08.637Z,86.66
2023-03-04T08:04:08.687Z,86.66
2023-03-04T08:05:08.617Z,86.66
2023-03-04T08:06:08.615Z,86.66
2023-03-04T08:07:08.587Z,86.76
2023-03-04T08:08:08.569Z,86.76
2023-03-04T08:09:08.567Z,86.76
2023-03-04T08:10:08.557Z,86.76
2023-03-04T08:11:08.556Z,86.66
2023-03-04T08:12:08.515Z,86.72
2023-03-04T08:13:08.505Z,86.83
2023-03-04T08:14:08.493Z,86.83
2023-03-04T08:15:08.494Z,86.83
2023-03-04T08:16:08.618Z,86.83
2023-03-04T08:17:08.451Z,86.72
2023-03-04T08:18:08.440Z,86.72
2023-03-04T08:19:08.423Z,86.72
2023-03-04T08:20:08.415Z,86.72
2023-03-04T08:21:08.413Z,86.72
2023-03-04T08:22:08.389Z,86.83
2023-03-04T08:23:08.380Z,86.93
2023-03-04T08:24:09.079Z,86.93
2023-03-04T08:25:08.342Z,86.93
2023-03-04T08:26:08.358Z,86.83
2023-03-04T08:27:08.321Z,86.72
2023-03-04T08:28:08.311Z,86.72
2023-03-04T08:29:08.297Z,86.83
2023-03-04T08:30:08.291Z,86.72
2023-03-04T08:31:08.443Z,86.72
2023-03-04T08:32:08.346Z,86.72
2023-03-04T08:33:08.251Z,86.83
2023-03-04T08:34:08.229Z,86.83
2023-03-04T08:35:08.221Z,86.72
2023-03-04T08:36:08.220Z,86.72
2023-03-04T08:37:08.189Z,86.58
2023-03-04T08:38:08.176Z,86.58
2023-03-04T08:39:08.158Z,86.79
2023-03-04T08:40:08.159Z,86.79
2023-03-04T08:41:08.151Z,86.79
2023-03-04T08:42:08.132Z,86.79
2023-03-04T08:43:08.110Z,86.79
2023-03-04T08:44:08.122Z,86.68
2023-03-04T08:45:08.088Z,86.79
2023-03-04T08:46:08.143Z,86.79
2023-03-04T08:47:08.055Z,86.79
2023-03-04T08:48:08.049Z,86.79
2023-03-04T08:49:08.045Z,86.75
2023-03-04T08:50:08.025Z,86.75
2023-03-04T08:51:08.016Z,86.85
2023-03-04T08:52:07.999Z,86.81
2023-03-04T08:53:07.988Z,86.91
2023-03-04T08:54:07.971Z,86.91
2023-03-04T08:55:07.955Z,86.88
2023-03-04T08:56:07.969Z,86.77
2023-03-04T08:57:07.975Z,86.77
2023-03-04T08:58:07.916Z,86.77
2023-03-04T08:59:07.896Z,86.67
2023-03-04T09:00:07.895Z,86.57
2023-03-04T09:01:07.912Z,86.46
2023-03-04T09:02:07.905Z,86.25
2023-03-04T09:03:07.865Z,86.25
2023-03-04T09:04:07.857Z,86.15
2023-03-04T09:05:07.825Z,86.05
2023-03-04T09:06:07.846Z,86.11
2023-03-04T09:07:07.796Z,86.11
2023-03-04T09:08:07.792Z,86.11
2023-03-04T09:09:07.793Z,86.11
2023-03-04T09:10:07.762Z,86.11
2023-03-04T09:11:07.812Z,86.01
2023-03-04T09:12:07.740Z,86.01
2023-03-04T09:13:07.716Z,85.91
2023-03-04T09:14:07.706Z,85.70
2023-03-04T09:15:11.587Z,85.60
2023-03-04T09:16:07.706Z,85.49
2023-03-04T09:17:07.663Z,85.28
2023-03-04T09:18:07.664Z,85.18
2023-03-04T09:19:07.632Z,85.14
2023-03-04T09:20:07.639Z,84.94
2023-03-04T09:21:07.638Z,84.94
2023-03-04T09:22:07.612Z,84.83
2023-03-04T09:23:07.584Z,84.83
2023-03-04T09:24:07.581Z,84.83
2023-03-04T09:25:11.580Z,84.94
2023-03-04T09:26:08.562Z,84.94
2023-03-04T09:27:07.532Z,84.94
2023-03-04T09:28:07.527Z,84.94
2023-03-04T09:29:07.517Z,84.94
2023-03-04T09:30:07.501Z,84.94
2023-03-04T09:31:07.549Z,84.94
2023-03-04T09:32:07.535Z,84.73
2023-03-04T09:33:07.476Z,84.63
2023-03-04T09:34:07.442Z,84.63
2023-03-04T09:35:07.444Z,84.59
2023-03-04T09:36:07.463Z,84.59
2023-03-04T09:37:07.421Z,84.59
2023-03-04T09:38:07.405Z,84.48
2023-03-04T09:39:07.381Z,84.48
2023-03-04T09:40:07.386Z,84.48
2023-03-04T09:41:07.342Z,84.48
2023-03-04T09:42:07.349Z,84.48
2023-03-04T09:43:07.341Z,84.38
2023-03-04T09:44:07.311Z,84.38
2023-03-04T09:45:07.289Z,84.38
2023-03-04T09:46:07.302Z,84.48
2023-03-04T09:47:07.344Z,84.48
2023-03-04T09:48:07.270Z,84.55
2023-03-04T09:49:07.662Z,84.55
2023-03-04T09:50:07.237Z,84.44
2023-03-04T09:51:07.215Z,84.44
2023-03-04T09:52:07.268Z,84.34
2023-03-04T09:53:07.198Z,84.30
2023-03-04T09:54:07.314Z,84.30
2023-03-04T09:55:07.210Z,84.20
2023-03-04T09:56:07.168Z,84.20
2023-03-04T09:57:07.147Z,84.09
2023-03-04T09:58:07.167Z,84.09
2023-03-04T09:59:07.117Z,83.99
2023-03-04T10:00:07.144Z,83.85
2023-03-04T10:01:07.114Z,83.75
2023-03-04T10:02:07.100Z,83.75
2023-03-04T10:03:07.070Z,83.64
2023-03-04T10:04:07.124Z,83.54
2023-03-04T10:05:07.048Z,83.54
2023-03-04T10:06:07.054Z,83.44
2023-03-04T10:07:07.042Z,83.44
2023-03-04T10:08:07.034Z,83.33
2023-03-04T10:09:07.017Z,83.33
2023-03-04T10:10:06.972Z,83.33
2023-03-04T10:11:06.971Z,83.19
2023-03-04T10:12:06.973Z,83.19
2023-03-04T10:13:06.965Z,83.19
2023-03-04T10:14:06.929Z,83.09
2023-03-04T10:15:06.891Z,83.09
2023-03-04T10:16:06.941Z,83.09
2023-03-04T10:17:06.986Z,83.09
2023-03-04T10:18:06.872Z,83.09
2023-03-04T10:19:07.194Z,83.05
2023-03-04T10:20:06.841Z,83.05
2023-03-04T10:21:06.841Z,83.05
2023-03-04T10:22:06.821Z,83.05
2023-03-04T10:23:06.870Z,83.05
2023-03-04T10:24:06.790Z,83.01
2023-03-04T10:25:06.760Z,83.01
2023-03-04T10:26:06.759Z,82.91
2023-03-04T10:27:06.747Z,83.01
2023-03-04T10:28:06.738Z,82.91
2023-03-04T10:29:06.696Z,82.81
2023-03-04T10:30:06.685Z,82.70
2023-03-04T10:31:14.234Z,82.60
2023-03-04T10:32:15.464Z,82.60
2023-03-04T10:33:14.167Z,82.60
2023-03-04T10:34:14.191Z,82.50
2023-03-04T10:35:14.127Z,82.50
2023-03-04T10:36:06.617Z,82.50
2023-03-04T10:37:06.615Z,82.40
2023-03-04T10:38:06.595Z,82.54
2023-03-04T10:39:06.575Z,82.43
2023-03-04T10:40:06.554Z,82.43
2023-03-04T10:41:06.552Z,82.43
2023-03-04T10:42:06.637Z,82.43
2023-03-04T10:43:06.544Z,82.43
2023-03-04T10:44:06.502Z,82.43
2023-03-04T10:45:06.493Z,82.54
2023-03-04T10:46:06.538Z,82.54
2023-03-04T10:47:06.472Z,82.54
2023-03-04T10:48:06.489Z,82.54
2023-03-04T10:49:06.441Z,82.54
2023-03-04T10:50:06.422Z,82.64
2023-03-04T10:51:06.424Z,82.64
2023-03-04T10:52:06.449Z,82.74
2023-03-04T10:53:06.496Z,82.74
2023-03-04T10:54:06.366Z,82.81
2023-03-04T10:55:06.355Z,82.91
2023-03-04T10:56:06.357Z,83.01
2023-03-04T10:57:06.435Z,82.97
2023-03-04T10:58:06.393Z,83.18
2023-03-04T10:59:06.318Z,83.18
2023-03-04T11:00:06.284Z,83.04
2023-03-04T11:01:06.343Z,83.04
2023-03-04T11:02:06.275Z,82.93
2023-03-04T11:03:06.242Z,82.73
2023-03-04T11:04:06.265Z,82.63
2023-03-04T11:05:06.259Z,82.53
2023-03-04T11:06:06.207Z,82.42
2023-03-04T11:07:06.209Z,82.35
2023-03-04T11:08:06.190Z,82.25
2023-03-04T11:09:06.164Z,82.15
2023-03-04T11:10:06.153Z,82.15
2023-03-04T11:11:06.130Z,82.05
2023-03-04T11:12:06.139Z,82.05
2023-03-04T11:13:06.108Z,82.05
2023-03-04T11:14:06.110Z,82.05
2023-03-04T11:15:06.088Z,82.05
2023-03-04T11:16:06.070Z,82.11
2023-03-04T11:17:06.058Z,82.11
2023-03-04T11:18:06.060Z,82.21
2023-03-04T11:19:06.024Z,82.07
2023-03-04T11:20:06.019Z,82.07
2023-03-04T11:21:06.080Z,82.07
2023-03-04T11:22:06.026Z,81.97
2023-03-04T11:23:05.976Z,81.76
2023-03-04T11:24:07.005Z,81.67
2023-03-04T11:25:05.954Z,81.56
2023-03-04T11:26:05.938Z,81.56
2023-03-04T11:27:05.936Z,81.46
2023-03-04T11:28:05.912Z,81.25
2023-03-04T11:29:05.905Z,81.15
2023-03-04T11:30:05.882Z,81.15
2023-03-04T11:31:05.869Z,81.05
2023-03-04T11:32:05.961Z,80.84
2023-03-04T11:33:05.910Z,80.63
2023-03-04T11:34:05.838Z,80.63
2023-03-04T11:35:05.821Z,80.63
2023-03-04T11:36:05.815Z,80.63
2023-03-04T11:37:05.819Z,80.22
2023-03-04T11:38:05.790Z,80.12
2023-03-04T11:39:05.793Z,80.36
2023-03-04T11:40:05.795Z,80.47
2023-03-04T11:41:05.746Z,80.47
2023-03-04T11:42:05.758Z,80.57
2023-03-04T11:43:05.730Z,80.67
2023-03-04T11:44:05.723Z,80.67
2023-03-04T11:45:06.949Z,80.67
2023-03-04T11:46:06.750Z,80.77
2023-03-04T11:47:05.686Z,80.77
2023-03-04T11:48:05.686Z,80.77
2023-03-04T11:49:05.658Z,80.88
2023-03-04T11:50:05.647Z,80.88
2023-03-04T11:51:05.668Z,80.88
2023-03-04T11:52:05.652Z,80.88
2023-03-04T11:53:05.712Z,80.84
2023-03-04T11:54:05.599Z,80.84
2023-03-04T11:55:05.599Z,80.94
2023-03-04T11:56:05.570Z,80.91
2023-03-04T11:57:05.567Z,80.91
2023-03-04T11:58:05.548Z,80.77
2023-03-04T11:59:05.526Z,80.77
2023-03-04T12:00:05.516Z,80.66
2023-03-04T12:01:05.502Z,80.42
2023-03-04T12:02:05.504Z,80.32
2023-03-04T12:03:05.474Z,80.18
2023-03-04T12:04:05.563Z,80.07
2023-03-04T12:05:05.470Z,79.87
2023-03-04T12:06:05.440Z,79.63
2023-03-04T12:07:05.426Z,79.42
2023-03-04T12:08:05.416Z,79.32
2023-03-04T12:09:05.391Z,79.18
2023-03-04T12:10:05.394Z,78.97
2023-03-04T12:11:05.365Z,78.77
2023-03-04T12:12:05.362Z,78.56
2023-03-04T12:13:05.342Z,78.36
2023-03-04T12:14:05.332Z,78.36
2023-03-04T12:15:05.325Z,78.16
2023-03-04T12:16:05.376Z,78.16
2023-03-04T12:17:05.319Z,77.95
2023-03-04T12:18:05.296Z,77.74
2023-03-04T12:19:05.262Z,77.78
2023-03-04T12:20:05.296Z,77.68
2023-03-04T12:21:05.239Z,77.47
2023-03-04T12:22:05.232Z,77.51
2023-03-04T12:23:05.220Z,77.51
2023-03-04T12:24:05.203Z,77.51
2023-03-04T12:25:05.183Z,77.51
2023-03-04T12:26:05.173Z,77.61
2023-03-04T12:27:05.172Z,77.75
2023-03-04T12:28:05.142Z,77.65
2023-03-04T12:29:05.130Z,77.75
2023-03-04T12:30:05.126Z,77.85
2023-03-04T12:31:05.143Z,77.85
2023-03-04T12:32:05.168Z,77.85
2023-03-04T12:33:05.134Z,77.85
2023-03-04T12:34:05.063Z,77.75
2023-03-04T12:35:05.061Z,77.75
2023-03-04T12:36:05.038Z,77.65
2023-03-04T12:37:05.231Z,77.65
2023-03-04T12:38:05.007Z,77.85
2023-03-04T12:39:05.002Z,77.85
2023-03-04T12:40:04.976Z,77.75
2023-03-04T12:41:04.976Z,77.81
2023-03-04T12:42:04.947Z,77.71
2023-03-04T12:43:04.957Z,77.61
2023-03-04T12:44:04.925Z,77.47
2023-03-04T12:45:04.921Z,77.47
2023-03-04T12:46:04.934Z,77.06
2023-03-04T12:47:04.887Z,76.65
2023-03-04T12:48:04.927Z,76.65
2023-03-04T12:49:04.867Z,76.55
2023-03-04T12:50:04.848Z,76.41
2023-03-04T12:51:04.837Z,76.20
2023-03-04T12:52:04.826Z,76.20